createdAt,value
2024-04-23T00:00:58.170Z,22.95
2024-04-23T00:02:01.637Z,22.96
2024-04-23T00:03:05.072Z,22.94
2024-04-23T00:04:08.587Z,22.94
2024-04-23T00:05:13.489Z,22.95
2024-04-23T00:06:16.997Z,22.96
2024-04-23T00:07:20.227Z,22.96
2024-04-23T00:08:23.439Z,22.97
2024-04-23T00:09:26.613Z,22.94
2024-04-23T00:10:31.494Z,22.93
2024-04-23T00:11:35.105Z,22.95
2024-04-23T00:12:38.542Z,22.94
2024-04-23T00:13:41.780Z,22.93
2024-04-23T00:14:45.100Z,22.93
2024-04-23T00:15:48.430Z,22.92
2024-04-23T00:16:51.784Z,22.91
2024-04-23T00:17:55.103Z,22.91
2024-04-23T00:18:58.508Z,22.92
2024-04-23T00:20:03.823Z,22.91
2024-04-23T00:21:07.228Z,22.93
2024-04-23T00:22:10.369Z,22.92
2024-04-23T00:23:13.697Z,22.92
2024-04-23T00:24:16.876Z,22.93
2024-04-23T00:25:20.112Z,22.92
2024-04-23T00:26:25.456Z,22.91
2024-04-23T00:27:28.685Z,22.93
2024-04-23T00:28:31.934Z,22.92
2024-04-23T00:29:35.311Z,22.91
2024-04-23T00:30:38.665Z,22.9
2024-04-23T00:31:41.864Z,22.91
2024-04-23T00:32:46.532Z,22.89
2024-04-23T00:33:50.108Z,22.91
2024-04-23T00:34:53.348Z,22.89
2024-04-23T00:35:56.792Z,22.89
2024-04-23T00:37:00.074Z,22.9
2024-04-23T00:38:03.438Z,22.89
2024-04-23T00:39:06.819Z,22.9
2024-04-23T00:40:10.060Z,22.88
2024-04-23T00:41:13.328Z,22.9
2024-04-23T00:42:16.645Z,22.88
2024-04-23T00:43:19.903Z,22.87
2024-04-23T00:44:23.121Z,22.87
2024-04-23T00:45:26.368Z,22.87
2024-04-23T00:46:31.818Z,22.86
2024-04-23T00:47:37.141Z,22.87
2024-04-23T00:48:42.383Z,22.89
2024-04-23T00:49:45.580Z,22.9
2024-04-23T00:50:48.935Z,22.91
2024-04-23T00:51:52.199Z,22.87
2024-04-23T00:52:55.521Z,22.86
2024-04-23T00:53:59.038Z,22.85
2024-04-23T00:55:02.309Z,22.85
2024-04-23T00:56:05.506Z,22.85
2024-04-23T00:57:08.952Z,22.86
2024-04-23T00:58:12.259Z,22.87
2024-04-23T00:59:15.509Z,22.86
2024-04-23T01:00:18.774Z,22.86
2024-04-23T01:01:22.006Z,22.85
2024-04-23T01:02:25.282Z,22.84
2024-04-23T01:03:28.692Z,22.84
2024-04-23T01:04:32.002Z,22.84
2024-04-23T01:05:35.334Z,22.85
2024-04-23T01:06:38.597Z,22.85
2024-04-23T01:07:41.797Z,22.84
2024-04-23T01:08:46.528Z,22.84
2024-04-23T01:09:49.738Z,22.86
2024-04-23T01:10:55.043Z,22.85
2024-04-23T01:11:58.471Z,22.86
2024-04-23T01:13:01.912Z,22.85
2024-04-23T01:14:10.675Z,22.84
2024-04-23T01:15:15.779Z,22.88
2024-04-23T01:16:18.932Z,22.88
2024-04-23T01:17:22.204Z,22.86
2024-04-23T01:18:27.799Z,22.85
2024-04-23T01:19:31.234Z,22.85
2024-04-23T01:20:34.532Z,22.85
2024-04-23T01:21:37.869Z,22.86
2024-04-23T01:22:41.096Z,22.85
2024-04-23T01:23:44.384Z,22.84
2024-04-23T01:24:49.642Z,22.84
2024-04-23T01:25:52.827Z,22.84
2024-04-23T01:26:56.123Z,22.84
2024-04-23T01:28:00.357Z,22.84
2024-04-23T01:29:03.596Z,22.82
2024-04-23T01:30:07.006Z,22.83
2024-04-23T01:31:10.281Z,22.83
2024-04-23T01:32:13.539Z,22.81
2024-04-23T01:33:16.770Z,22.81
2024-04-23T01:34:20.187Z,22.8
2024-04-23T01:35:23.394Z,22.81
2024-04-23T01:36:26.617Z,22.8
2024-04-23T01:37:29.817Z,22.79
2024-04-23T01:38:33.149Z,22.78
2024-04-23T01:39:36.363Z,22.79
2024-04-23T01:40:41.107Z,22.78
2024-04-23T01:41:44.275Z,22.81
2024-04-23T01:42:49.471Z,22.81
2024-04-23T01:43:54.793Z,22.79
2024-04-23T01:44:58.406Z,22.82
2024-04-23T01:46:03.651Z,22.81
2024-04-23T01:47:06.780Z,22.82
2024-04-23T01:48:12.571Z,22.81
2024-04-23T01:49:16.001Z,22.82
2024-04-23T01:50:19.206Z,22.82
2024-04-23T01:51:22.387Z,22.81
2024-04-23T01:52:25.571Z,22.78
2024-04-23T01:53:30.443Z,22.77
2024-04-23T01:54:33.667Z,22.78
2024-04-23T01:55:36.934Z,22.76
2024-04-23T01:56:42.133Z,22.76
2024-04-23T01:57:45.381Z,22.77
2024-04-23T01:58:48.635Z,22.77
2024-04-23T01:59:52.098Z,22.78
2024-04-23T02:00:55.392Z,22.76
2024-04-23T02:01:58.831Z,22.75
2024-04-23T02:03:02.255Z,22.75
2024-04-23T02:04:05.549Z,22.75
2024-04-23T02:05:08.754Z,22.75
2024-04-23T02:06:12.033Z,22.75
2024-04-23T02:07:21.289Z,22.74
2024-04-23T02:08:24.375Z,22.79
2024-04-23T02:09:27.579Z,22.8
2024-04-23T02:10:30.844Z,22.8
2024-04-23T02:11:36.177Z,22.79
2024-04-23T02:12:39.475Z,22.79
2024-04-23T02:13:42.740Z,22.78
2024-04-23T02:14:46.139Z,22.77
2024-04-23T02:15:51.357Z,22.75
2024-04-23T02:16:56.334Z,22.76
2024-04-23T02:18:04.572Z,22.81
2024-04-23T02:19:08.108Z,22.8
2024-04-23T02:20:11.458Z,22.8
2024-04-23T02:21:14.802Z,22.78
2024-04-23T02:22:18.026Z,22.77
2024-04-23T02:23:21.235Z,22.75
2024-04-23T02:24:24.497Z,22.75
2024-04-23T02:25:29.230Z,22.74
2024-04-23T02:26:32.604Z,22.75
2024-04-23T02:27:35.867Z,22.75
2024-04-23T02:28:39.194Z,22.75
2024-04-23T02:29:42.515Z,22.75
2024-04-23T02:30:45.823Z,22.75
2024-04-23T02:31:49.191Z,22.72
2024-04-23T02:32:52.630Z,22.73
2024-04-23T02:33:56.152Z,22.71
2024-04-23T02:34:59.497Z,22.72
2024-04-23T02:36:03.049Z,22.72
2024-04-23T02:37:06.245Z,22.72
2024-04-23T02:38:09.487Z,22.72
2024-04-23T02:39:12.722Z,22.71
2024-04-23T02:40:15.955Z,22.7
2024-04-23T02:41:19.122Z,22.71
2024-04-23T02:42:22.338Z,22.72
2024-04-23T02:43:27.597Z,22.71
2024-04-23T02:44:31.036Z,22.74
2024-04-23T02:45:34.326Z,22.73
2024-04-23T02:46:37.708Z,22.73
2024-04-23T02:47:40.980Z,22.71
2024-04-23T02:48:44.549Z,22.7
2024-04-23T02:49:47.866Z,22.71
2024-04-23T02:50:51.215Z,22.7
2024-04-23T02:51:55.926Z,22.71
2024-04-23T02:52:59.173Z,22.71
2024-04-23T02:54:02.515Z,22.69
2024-04-23T02:55:05.731Z,22.7
2024-04-23T02:56:08.992Z,22.7
2024-04-23T02:57:12.370Z,22.7
2024-04-23T02:58:17.106Z,22.68
2024-04-23T02:59:20.336Z,22.7
2024-04-23T03:00:23.622Z,22.71
2024-04-23T03:01:26.824Z,22.71
2024-04-23T03:02:30.425Z,22.7
2024-04-23T03:03:33.936Z,22.7
2024-04-23T03:04:37.506Z,22.68
2024-04-23T03:05:41.357Z,22.68
2024-04-23T03:06:44.678Z,22.68
2024-04-23T03:07:47.898Z,22.68
2024-04-23T03:08:52.848Z,22.68
2024-04-23T03:09:56.049Z,22.69
2024-04-23T03:10:59.340Z,22.68
2024-04-23T03:12:02.967Z,22.7
2024-04-23T03:13:06.231Z,22.68
2024-04-23T03:14:09.485Z,22.69
2024-04-23T03:15:12.803Z,22.68
2024-04-23T03:16:15.979Z,22.67
2024-04-23T03:17:19.154Z,22.68
2024-04-23T03:18:22.642Z,22.68
2024-04-23T03:19:27.807Z,22.67
2024-04-23T03:20:31.225Z,22.69
2024-04-23T03:21:34.514Z,22.68
2024-04-23T03:22:37.824Z,22.68
2024-04-23T03:23:41.145Z,22.67
2024-04-23T03:24:44.389Z,22.67
2024-04-23T03:25:47.589Z,22.67
2024-04-23T03:26:50.895Z,22.67
2024-04-23T03:27:54.122Z,22.67
2024-04-23T03:28:59.356Z,22.66
2024-04-23T03:30:02.751Z,22.69
2024-04-23T03:31:05.977Z,22.7
2024-04-23T03:32:09.272Z,22.7
2024-04-23T03:33:12.954Z,22.7
2024-04-23T03:34:16.555Z,22.69
2024-04-23T03:35:19.822Z,22.7
2024-04-23T03:36:23.082Z,22.7
2024-04-23T03:37:26.398Z,22.7
2024-04-23T03:38:29.729Z,22.69
2024-04-23T03:39:32.949Z,22.68
2024-04-23T03:40:38.214Z,22.68
2024-04-23T03:41:41.590Z,22.69
2024-04-23T03:42:44.899Z,22.68
2024-04-23T03:43:48.244Z,22.67
2024-04-23T03:44:51.508Z,22.67
2024-04-23T03:45:56.817Z,22.68
2024-04-23T03:47:00.113Z,22.69
2024-04-23T03:48:03.707Z,22.69
2024-04-23T03:49:07.159Z,22.68
2024-04-23T03:50:10.486Z,22.69
2024-04-23T03:51:13.771Z,22.7
2024-04-23T03:52:19.017Z,22.7
2024-04-23T03:53:22.298Z,22.71
2024-04-23T03:54:25.498Z,22.73
2024-04-23T03:55:28.750Z,22.73
2024-04-23T03:56:34.035Z,22.7
2024-04-23T03:57:37.258Z,22.72
2024-04-23T03:58:41.573Z,22.73
2024-04-23T03:59:45.066Z,22.73
2024-04-23T04:00:48.330Z,22.74
2024-04-23T04:01:51.862Z,22.73
2024-04-23T04:02:57.217Z,22.73
2024-04-23T04:04:00.470Z,22.74
2024-04-23T04:05:03.774Z,22.75
2024-04-23T04:06:07.101Z,22.75
2024-04-23T04:07:10.347Z,22.75
2024-04-23T04:08:15.594Z,22.74
2024-04-23T04:09:20.843Z,22.75
2024-04-23T04:10:24.016Z,22.77
2024-04-23T04:11:27.219Z,22.78
2024-04-23T04:12:30.673Z,22.78
2024-04-23T04:13:33.928Z,22.78
2024-04-23T04:14:37.299Z,22.77
2024-04-23T04:15:40.504Z,22.76
2024-04-23T04:16:45.341Z,22.76
2024-04-23T04:17:50.878Z,22.77
2024-04-23T04:18:54.508Z,22.81
2024-04-23T04:19:57.711Z,22.81
2024-04-23T04:21:01.219Z,22.8
2024-04-23T04:22:04.401Z,22.8
2024-04-23T04:23:07.827Z,22.8
2024-04-23T04:24:11.346Z,22.8
2024-04-23T04:25:14.699Z,22.8
2024-04-23T04:26:17.910Z,22.81
2024-04-23T04:27:21.147Z,22.81
2024-04-23T04:28:24.405Z,22.81
2024-04-23T04:29:29.091Z,22.81
2024-04-23T04:30:32.246Z,22.83
2024-04-23T04:31:37.521Z,22.83
2024-04-23T04:32:40.732Z,22.85
2024-04-23T04:33:44.109Z,22.84
2024-04-23T04:34:47.460Z,22.84
2024-04-23T04:35:50.816Z,22.84
2024-04-23T04:36:54.045Z,22.85
2024-04-23T04:37:59.318Z,22.85
2024-04-23T04:39:02.729Z,22.86
2024-04-23T04:40:05.886Z,22.86
2024-04-23T04:41:09.189Z,22.86
2024-04-23T04:42:12.630Z,22.86
2024-04-23T04:43:15.868Z,22.87
2024-04-23T04:44:19.092Z,22.88
2024-04-23T04:45:22.369Z,22.88
2024-04-23T04:46:25.645Z,22.88
2024-04-23T04:47:28.999Z,22.89
2024-04-23T04:48:32.665Z,22.91
2024-04-23T04:49:36.057Z,22.9
2024-04-23T04:50:39.444Z,22.88
2024-04-23T04:51:42.800Z,22.96
2024-04-23T04:52:45.997Z,23.04
2024-04-23T04:53:49.695Z,23.09
2024-04-23T04:54:52.907Z,23.14
2024-04-23T04:55:56.259Z,23.19
2024-04-23T04:56:59.663Z,23.22
2024-04-23T04:58:02.950Z,23.25
2024-04-23T04:59:06.275Z,23.28
2024-04-23T05:00:09.685Z,23.3
2024-04-23T05:01:14.048Z,23.31
2024-04-23T05:02:17.493Z,23.35
2024-04-23T05:03:20.877Z,23.37
2024-04-23T05:04:24.153Z,23.38
2024-04-23T05:05:27.621Z,23.4
2024-04-23T05:06:30.859Z,23.44
2024-04-23T05:07:36.138Z,23.46
2024-04-23T05:08:39.264Z,23.48
2024-04-23T05:09:42.495Z,23.49
2024-04-23T05:10:45.855Z,23.48
2024-04-23T05:11:49.315Z,23.46
2024-04-23T05:12:52.947Z,23.51
2024-04-23T05:13:56.183Z,23.51
2024-04-23T05:14:59.528Z,23.5
2024-04-23T05:16:04.272Z,23.53
2024-04-23T05:17:07.591Z,23.51
2024-04-23T05:18:13.151Z,23.51
2024-04-23T05:19:16.677Z,23.53
2024-04-23T05:20:19.899Z,23.52
2024-04-23T05:21:23.146Z,23.53
2024-04-23T05:22:26.321Z,23.53
2024-04-23T05:23:31.612Z,23.53
2024-04-23T05:24:34.821Z,23.56
2024-04-23T05:25:37.968Z,23.58
2024-04-23T05:26:43.356Z,23.59
2024-04-23T05:27:46.559Z,23.64
2024-04-23T05:28:52.015Z,23.65
2024-04-23T05:29:56.375Z,23.69
2024-04-23T05:31:01.593Z,23.69
2024-04-23T05:32:04.668Z,23.71
2024-04-23T05:33:08.291Z,23.7
2024-04-23T05:34:13.389Z,23.71
2024-04-23T05:35:16.619Z,23.73
2024-04-23T05:36:19.951Z,23.73
2024-04-23T05:37:23.281Z,23.71
2024-04-23T05:38:26.524Z,23.73
2024-04-23T05:39:29.742Z,23.74
2024-04-23T05:40:33.023Z,23.79
2024-04-23T05:41:36.287Z,23.81
2024-04-23T05:42:41.429Z,23.81
2024-04-23T05:43:44.760Z,23.7
2024-04-23T05:44:48.304Z,23.41
2024-04-23T05:45:51.456Z,22.97
2024-04-23T05:46:54.633Z,22.51
2024-04-23T05:47:59.675Z,22.08
2024-04-23T05:49:03.890Z,21.92
2024-04-23T05:50:07.201Z,21.94
2024-04-23T05:51:10.866Z,22.05
2024-04-23T05:52:19.443Z,22.17
2024-04-23T05:53:31.931Z,22.46
2024-04-23T05:54:35.144Z,22.61
2024-04-23T05:55:38.589Z,22.73
2024-04-23T05:56:44.162Z,22.84
2024-04-23T05:57:47.312Z,22.94
2024-04-23T05:58:50.546Z,23.02
2024-04-23T05:59:55.210Z,23.08
2024-04-23T06:00:58.453Z,23.14
2024-04-23T06:02:03.928Z,23.19
2024-04-23T06:03:07.482Z,23.24
2024-04-23T06:04:10.932Z,23.28
2024-04-23T06:05:14.312Z,23.3
2024-04-23T06:06:17.705Z,23.29
2024-04-23T06:07:21.060Z,23.31
2024-04-23T06:08:24.403Z,23.34
2024-04-23T06:09:29.800Z,23.37
2024-04-23T06:10:33.017Z,23.4
2024-04-23T06:11:38.491Z,23.42
2024-04-23T06:12:41.857Z,23.42
2024-04-23T06:13:45.418Z,23.46
2024-04-23T06:14:48.691Z,23.49
2024-04-23T06:15:53.098Z,23.5
2024-04-23T06:16:56.328Z,23.53
2024-04-23T06:17:59.691Z,23.56
2024-04-23T06:19:03.106Z,23.56
2024-04-23T06:20:06.747Z,23.57
2024-04-23T06:21:10.364Z,23.6
2024-04-23T06:22:13.604Z,23.63
2024-04-23T06:23:18.400Z,23.62
2024-04-23T06:24:21.610Z,23.63
2024-04-23T06:25:26.878Z,23.61
2024-04-23T06:26:30.125Z,23.55
2024-04-23T06:27:33.319Z,23.53
2024-04-23T06:28:38.632Z,23.54
2024-04-23T06:29:41.792Z,23.57
2024-04-23T06:30:45.044Z,23.58
2024-04-23T06:31:48.430Z,23.62
2024-04-23T06:32:52.032Z,23.65
2024-04-23T06:33:57.428Z,23.67
2024-04-23T06:35:02.770Z,23.71
2024-04-23T06:36:06.425Z,23.73
2024-04-23T06:37:09.723Z,23.75
2024-04-23T06:38:13.043Z,23.77
2024-04-23T06:39:16.357Z,23.72
2024-04-23T06:40:19.574Z,23.53
2024-04-23T06:41:23.031Z,23.45
2024-04-23T06:42:31.182Z,23.47
2024-04-23T06:43:44.492Z,23.58
2024-04-23T06:44:52.669Z,23.53
2024-04-23T06:45:55.865Z,23.31
2024-04-23T06:47:03.999Z,23.09
2024-04-23T06:48:09.472Z,22.8
2024-04-23T06:49:12.839Z,22.74
2024-04-23T06:50:18.039Z,22.75
2024-04-23T06:51:23.274Z,22.89
2024-04-23T06:52:26.492Z,23.05
2024-04-23T06:53:29.714Z,23.19
2024-04-23T06:54:32.961Z,23.31
2024-04-23T06:55:36.280Z,23.38
2024-04-23T06:56:40.490Z,23.48
2024-04-23T06:57:43.752Z,23.55
2024-04-23T06:58:49.113Z,23.6
2024-04-23T06:59:53.390Z,23.63
2024-04-23T07:00:56.663Z,23.68
2024-04-23T07:02:00.963Z,23.72
2024-04-23T07:03:05.887Z,23.71
2024-04-23T07:04:09.403Z,23.76
2024-04-23T07:05:14.951Z,23.78
2024-04-23T07:06:18.391Z,23.71
2024-04-23T07:07:23.061Z,23.67
2024-04-23T07:08:26.241Z,23.68
2024-04-23T07:09:29.474Z,23.69
2024-04-23T07:10:32.799Z,23.7
2024-04-23T07:11:36.200Z,23.72
2024-04-23T07:12:41.603Z,23.72
2024-04-23T07:13:44.779Z,23.74
2024-04-23T07:14:50.197Z,23.77
2024-04-23T07:15:53.375Z,23.8
2024-04-23T07:16:56.795Z,23.8
2024-04-23T07:18:00.425Z,23.83
2024-04-23T07:19:04.067Z,23.89
2024-04-23T07:20:07.387Z,23.97
2024-04-23T07:21:10.812Z,23.98
2024-04-23T07:22:14.028Z,24.02
2024-04-23T07:23:17.364Z,24.09
2024-04-23T07:24:20.606Z,24.14
2024-04-23T07:25:25.162Z,24.25
2024-04-23T07:26:28.543Z,24.35
2024-04-23T07:27:31.786Z,24.38
2024-04-23T07:28:35.295Z,24.52
2024-04-23T07:29:38.662Z,24.56
2024-04-23T07:30:42.077Z,24.51
2024-04-23T07:31:45.371Z,24.51
2024-04-23T07:32:50.673Z,24.5
2024-04-23T07:33:54.054Z,24.54
2024-04-23T07:34:57.516Z,24.54
2024-04-23T07:36:03.051Z,24.56
2024-04-23T07:37:06.196Z,24.59
2024-04-23T07:38:09.437Z,24.61
2024-04-23T07:39:13.030Z,24.63
2024-04-23T07:40:16.355Z,24.61
2024-04-23T07:41:19.629Z,24.62
2024-04-23T07:42:22.798Z,24.62
2024-04-23T07:43:26.513Z,24.63
2024-04-23T07:44:31.577Z,24.65
2024-04-23T07:45:35.014Z,24.69
2024-04-23T07:46:38.356Z,24.72
2024-04-23T07:47:41.884Z,24.73
2024-04-23T07:48:45.629Z,24.73
2024-04-23T07:49:49.058Z,24.73
2024-04-23T07:50:52.422Z,24.66
2024-04-23T07:51:57.626Z,24.64
2024-04-23T07:53:00.898Z,24.64
2024-04-23T07:54:04.460Z,24.61
2024-04-23T07:55:07.721Z,24.58
2024-04-23T07:56:11.370Z,24.57
2024-04-23T07:57:14.807Z,24.56
2024-04-23T07:58:18.027Z,24.56
2024-04-23T07:59:21.320Z,24.57
2024-04-23T08:00:24.652Z,24.58
2024-04-23T08:01:27.861Z,24.57
2024-04-23T08:02:31.132Z,24.56
2024-04-23T08:03:36.517Z,24.54
2024-04-23T08:04:39.699Z,24.56
2024-04-23T08:05:43.019Z,24.57
2024-04-23T08:06:46.303Z,24.56
2024-04-23T08:07:49.510Z,24.54
2024-04-23T08:08:52.714Z,24.52
2024-04-23T08:09:55.996Z,24.49
2024-04-23T08:10:59.241Z,24.49
2024-04-23T08:12:02.586Z,24.48
2024-04-23T08:13:06.050Z,24.48
2024-04-23T08:14:09.399Z,24.49
2024-04-23T08:15:14.941Z,24.51
2024-04-23T08:16:23.631Z,24.59
2024-04-23T08:17:27.321Z,24.68
2024-04-23T08:18:31.036Z,24.74
2024-04-23T08:19:34.479Z,24.78
2024-04-23T08:20:39.546Z,24.8
2024-04-23T08:21:46.091Z,24.84
2024-04-23T08:22:49.365Z,24.89
2024-04-23T08:23:52.759Z,24.91
2024-04-23T08:24:55.998Z,24.91
2024-04-23T08:25:59.297Z,24.93
2024-04-23T08:27:02.643Z,24.94
2024-04-23T08:28:05.844Z,24.94
2024-04-23T08:29:10.153Z,24.98
2024-04-23T08:30:13.512Z,24.99
2024-04-23T08:31:16.713Z,24.99
2024-04-23T08:32:19.923Z,25.01
2024-04-23T08:33:23.226Z,25.02
2024-04-23T08:34:26.845Z,25.03
2024-04-23T08:35:30.124Z,25.06
2024-04-23T08:36:33.347Z,25.07
2024-04-23T08:37:38.588Z,25.08
2024-04-23T08:38:41.812Z,25.11
2024-04-23T08:39:45.062Z,25.13
2024-04-23T08:40:49.647Z,25.15
2024-04-23T08:41:53.041Z,25.15
2024-04-23T08:42:57.921Z,25.19
2024-04-23T08:44:01.129Z,25.22
2024-04-23T08:45:04.786Z,25.23
2024-04-23T08:46:08.202Z,25.24
2024-04-23T08:47:11.588Z,25.25
2024-04-23T08:48:21.184Z,25.26
2024-04-23T08:49:24.430Z,25.28
2024-04-23T08:50:27.662Z,25.28
2024-04-23T08:51:31.082Z,25.28
2024-04-23T08:52:34.327Z,25.3
2024-04-23T08:53:37.502Z,25.3
2024-04-23T08:54:40.801Z,25.31
2024-04-23T08:55:44.239Z,25.31
2024-04-23T08:56:47.701Z,25.32
2024-04-23T08:57:51.004Z,25.31
2024-04-23T08:58:54.202Z,25.33
2024-04-23T08:59:59.061Z,25.34
2024-04-23T09:01:02.321Z,25.36
2024-04-23T09:02:05.579Z,25.36
2024-04-23T09:03:08.988Z,25.37
2024-04-23T09:04:12.569Z,25.35
2024-04-23T09:05:16.199Z,25.39
2024-04-23T09:06:24.236Z,25.44
2024-04-23T09:07:30.663Z,25.44
2024-04-23T09:08:36.590Z,25.48
2024-04-23T09:09:39.747Z,25.47
2024-04-23T09:10:43.046Z,25.49
2024-04-23T09:11:46.722Z,25.49
2024-04-23T09:12:52.195Z,25.49
2024-04-23T09:13:55.427Z,25.49
2024-04-23T09:14:58.970Z,25.5
2024-04-23T09:16:02.177Z,25.49
2024-04-23T09:17:07.466Z,25.48
2024-04-23T09:18:10.944Z,25.49
2024-04-23T09:19:14.357Z,25.43
2024-04-23T09:20:18.630Z,25.43
2024-04-23T09:21:24.128Z,25.41
2024-04-23T09:22:27.358Z,25.38
2024-04-23T09:23:30.757Z,25.24
2024-04-23T09:24:35.942Z,25.07
2024-04-23T09:25:39.528Z,24.97
2024-04-23T09:26:42.780Z,24.86
2024-04-23T09:27:46.059Z,24.75
2024-04-23T09:28:49.324Z,24.68
2024-04-23T09:29:53.094Z,24.63
2024-04-23T09:30:56.231Z,24.58
2024-04-23T09:31:59.355Z,24.51
2024-04-23T09:33:02.975Z,24.47
2024-04-23T09:34:08.294Z,24.45
2024-04-23T09:35:11.571Z,24.55
2024-04-23T09:36:14.963Z,24.61
2024-04-23T09:37:18.156Z,24.62
2024-04-23T09:38:21.456Z,24.59
2024-04-23T09:39:24.935Z,24.52
2024-04-23T09:40:28.231Z,24.53
2024-04-23T09:41:31.435Z,24.57
2024-04-23T09:42:34.682Z,24.57
2024-04-23T09:43:37.918Z,24.48
2024-04-23T09:44:41.177Z,24.4
2024-04-23T09:45:46.499Z,24.31
2024-04-23T09:46:49.702Z,24.26
2024-04-23T09:47:53.123Z,24.34
2024-04-23T09:48:58.219Z,24.34
2024-04-23T09:50:01.403Z,24.41
2024-04-23T09:51:04.739Z,24.51
2024-04-23T09:52:08.010Z,24.55
2024-04-23T09:53:11.376Z,24.6
2024-04-23T09:54:14.999Z,24.42
2024-04-23T09:55:18.168Z,24.23
2024-04-23T09:56:21.364Z,24.23
2024-04-23T09:57:24.564Z,24.16
2024-04-23T09:58:30.055Z,24.08
2024-04-23T09:59:33.715Z,24.15
2024-04-23T10:00:36.954Z,24.24
2024-04-23T10:01:40.329Z,24.33
2024-04-23T10:02:43.992Z,24.39
2024-04-23T10:03:48.423Z,24.44
2024-04-23T10:04:55.878Z,24.55
2024-04-23T10:05:59.684Z,24.6
2024-04-23T10:07:02.926Z,24.66
2024-04-23T10:08:06.314Z,24.71
2024-04-23T10:09:11.759Z,24.78
2024-04-23T10:10:18.015Z,24.86
2024-04-23T10:11:27.396Z,24.95
2024-04-23T10:12:31.286Z,24.96
2024-04-23T10:13:36.153Z,24.93
2024-04-23T10:14:39.975Z,24.93
2024-04-23T10:15:43.227Z,24.95
2024-04-23T10:16:46.508Z,24.95
2024-04-23T10:17:49.876Z,24.96
2024-04-23T10:18:53.458Z,24.98
2024-04-23T10:19:56.787Z,24.97
2024-04-23T10:21:00.044Z,24.98
2024-04-23T10:22:03.331Z,24.99
2024-04-23T10:23:06.744Z,25.01
2024-04-23T10:24:10.308Z,25.01
2024-04-23T10:25:13.659Z,25.02
2024-04-23T10:26:16.994Z,25.04
2024-04-23T10:27:20.594Z,25.04
2024-04-23T10:28:23.845Z,25.04
2024-04-23T10:29:29.182Z,25.03
2024-04-23T10:30:32.394Z,25.02
2024-04-23T10:31:37.497Z,25.04
2024-04-23T10:32:41.459Z,25.04
2024-04-23T10:33:45.429Z,25.06
2024-04-23T10:34:49.017Z,25.07
2024-04-23T10:35:52.426Z,25.11
2024-04-23T10:36:55.647Z,25.16
2024-04-23T10:38:01.037Z,25.08
2024-04-23T10:39:04.549Z,24.98
2024-04-23T10:40:09.812Z,24.85
2024-04-23T10:41:13.216Z,24.72
2024-04-23T10:42:16.742Z,24.69
2024-04-23T10:43:19.971Z,24.63
2024-04-23T10:44:23.456Z,24.57
2024-04-23T10:45:26.807Z,24.54
2024-04-23T10:46:30.089Z,24.48
2024-04-23T10:47:33.426Z,24.44
2024-04-23T10:48:37.086Z,24.4
2024-04-23T10:49:40.671Z,24.36
2024-04-23T10:50:44.147Z,24.38
2024-04-23T10:51:47.493Z,24.36
2024-04-23T10:52:52.927Z,24.32
2024-04-23T10:53:59.234Z,24.36
2024-04-23T10:55:02.386Z,24.41
2024-04-23T10:56:05.676Z,24.45
2024-04-23T10:57:09.237Z,24.49
2024-04-23T10:58:12.657Z,24.49
2024-04-23T10:59:15.992Z,24.52
2024-04-23T11:00:19.440Z,24.55
2024-04-23T11:01:22.776Z,24.57
2024-04-23T11:02:26.309Z,24.59
2024-04-23T11:03:30.509Z,24.6
2024-04-23T11:04:35.278Z,24.62
2024-04-23T11:05:38.927Z,24.63
2024-04-23T11:06:42.330Z,24.6
2024-04-23T11:07:45.615Z,24.6
2024-04-23T11:08:48.896Z,24.6
2024-04-23T11:09:52.118Z,24.58
2024-04-23T11:10:55.338Z,24.58
2024-04-23T11:11:58.708Z,24.6
2024-04-23T11:13:01.914Z,24.61
2024-04-23T11:14:05.225Z,24.6
2024-04-23T11:15:08.881Z,24.61
2024-04-23T11:16:12.119Z,24.6
2024-04-23T11:17:15.374Z,24.6
2024-04-23T11:18:18.959Z,24.58
2024-04-23T11:19:22.624Z,24.57
2024-04-23T11:20:25.904Z,24.55
2024-04-23T11:21:29.179Z,24.54
2024-04-23T11:22:32.433Z,24.54
2024-04-23T11:23:35.558Z,24.54
2024-04-23T11:24:38.850Z,24.53
2024-04-23T11:25:42.130Z,24.55
2024-04-23T11:26:45.417Z,24.58
2024-04-23T11:27:48.736Z,24.57
2024-04-23T11:28:52.180Z,24.61
2024-04-23T11:29:55.814Z,24.62
2024-04-23T11:30:59.070Z,24.64
2024-04-23T11:32:04.392Z,24.66
2024-04-23T11:33:10.045Z,24.69
2024-04-23T11:34:13.649Z,24.69
2024-04-23T11:35:16.911Z,24.66
2024-04-23T11:36:20.331Z,24.67
2024-04-23T11:37:23.667Z,24.68
2024-04-23T11:38:26.944Z,24.67
2024-04-23T11:39:30.161Z,24.67
2024-04-23T11:40:33.435Z,24.67
2024-04-23T11:41:36.657Z,24.64
2024-04-23T11:42:39.874Z,24.63
2024-04-23T11:43:43.120Z,24.63
2024-04-23T11:44:46.404Z,24.62
2024-04-23T11:45:49.604Z,24.61
2024-04-23T11:46:52.837Z,24.58
2024-04-23T11:47:58.035Z,24.57
2024-04-23T11:49:01.421Z,24.57
2024-04-23T11:50:05.158Z,24.58
2024-04-23T11:51:08.751Z,24.57
2024-04-23T11:52:11.993Z,24.56
2024-04-23T11:53:15.267Z,24.55
2024-04-23T11:54:20.542Z,24.54
2024-04-23T11:55:24.172Z,24.55
2024-04-23T11:56:27.536Z,24.54
2024-04-23T11:57:30.860Z,24.54
2024-04-23T11:58:34.123Z,24.54
2024-04-23T11:59:37.364Z,24.54
2024-04-23T12:00:40.522Z,24.53
2024-04-23T12:01:43.881Z,24.52
2024-04-23T12:02:47.350Z,24.52
2024-04-23T12:03:53.058Z,24.53
2024-04-23T12:04:57.333Z,24.55
2024-04-23T12:06:00.862Z,24.56
2024-04-23T12:07:04.430Z,24.55
2024-04-23T12:08:07.729Z,24.54
2024-04-23T12:09:11.272Z,24.54
2024-04-23T12:10:14.571Z,24.55
2024-04-23T12:11:17.873Z,24.55
2024-04-23T12:12:21.500Z,24.56
2024-04-23T12:13:24.702Z,24.54
2024-04-23T12:14:29.915Z,24.53
2024-04-23T12:15:33.123Z,24.54
2024-04-23T12:16:38.399Z,24.52
2024-04-23T12:17:43.711Z,24.54
2024-04-23T12:18:47.123Z,24.56
2024-04-23T12:19:50.419Z,24.55
2024-04-23T12:20:53.809Z,24.54
2024-04-23T12:21:57.027Z,24.52
2024-04-23T12:23:00.210Z,24.51
2024-04-23T12:24:03.493Z,24.5
2024-04-23T12:25:06.741Z,24.48
2024-04-23T12:26:11.985Z,24.47
2024-04-23T12:27:18.292Z,24.47
2024-04-23T12:28:21.822Z,24.49
2024-04-23T12:29:25.216Z,24.48
2024-04-23T12:30:29.320Z,24.46
2024-04-23T12:31:32.862Z,24.46
2024-04-23T12:32:36.397Z,24.45
2024-04-23T12:33:46.079Z,24.44
2024-04-23T12:34:49.330Z,24.46
2024-04-23T12:35:52.707Z,24.46
2024-04-23T12:36:56.035Z,24.45
2024-04-23T12:37:59.451Z,24.43
2024-04-23T12:39:04.840Z,24.42
2024-04-23T12:40:09.137Z,24.43
2024-04-23T12:41:12.363Z,24.43
2024-04-23T12:42:15.809Z,24.42
2024-04-23T12:43:19.025Z,24.4
2024-04-23T12:44:22.372Z,24.4
2024-04-23T12:45:27.675Z,24.4
2024-04-23T12:46:33.162Z,24.41
2024-04-23T12:47:36.342Z,24.4
2024-04-23T12:48:40.142Z,24.39
2024-04-23T12:49:44.926Z,24.39
2024-04-23T12:50:48.277Z,24.38
2024-04-23T12:51:57.609Z,24.38
2024-04-23T12:53:01.787Z,24.43
2024-04-23T12:54:06.436Z,24.43
2024-04-23T12:55:10.053Z,24.4
2024-04-23T12:56:13.691Z,24.36
2024-04-23T12:57:17.057Z,24.36
2024-04-23T12:58:20.316Z,24.36
2024-04-23T12:59:23.557Z,24.34
2024-04-23T13:00:26.797Z,24.35
2024-04-23T13:01:34.871Z,24.36
2024-04-23T13:02:43.021Z,24.42
2024-04-23T13:03:46.321Z,24.42
2024-04-23T13:04:51.296Z,24.4
2024-04-23T13:05:54.551Z,24.4
2024-04-23T13:06:57.762Z,24.37
2024-04-23T13:08:01.085Z,24.35
2024-04-23T13:09:04.514Z,24.32
2024-04-23T13:10:07.835Z,24.31
2024-04-23T13:11:11.247Z,24.31
2024-04-23T13:12:14.869Z,24.3
2024-04-23T13:13:18.103Z,24.3
2024-04-23T13:14:21.385Z,24.3
2024-04-23T13:15:24.669Z,24.3
2024-04-23T13:16:34.702Z,24.28
2024-04-23T13:17:40.940Z,24.34
2024-04-23T13:18:44.398Z,24.33
2024-04-23T13:19:50.198Z,24.33
2024-04-23T13:21:00.854Z,24.39
2024-04-23T13:22:05.721Z,24.38
2024-04-23T13:23:09.722Z,24.35
2024-04-23T13:24:13.591Z,24.33
2024-04-23T13:25:16.895Z,24.27
2024-04-23T13:26:21.163Z,24.28
2024-04-23T13:27:24.423Z,24.3
2024-04-23T13:28:27.657Z,24.3
2024-04-23T13:29:30.926Z,24.28
2024-04-23T13:30:34.171Z,24.26
2024-04-23T13:31:37.387Z,24.26
2024-04-23T13:32:40.934Z,24.25
2024-04-23T13:33:46.099Z,24.26
2024-04-23T13:34:49.713Z,24.26
2024-04-23T13:35:53.207Z,24.24
2024-04-23T13:36:56.576Z,24.23
2024-04-23T13:37:59.696Z,24.24
2024-04-23T13:39:03.063Z,24.23
2024-04-23T13:40:06.362Z,24.23
2024-04-23T13:41:09.849Z,24.23
2024-04-23T13:42:13.553Z,24.23
2024-04-23T13:43:16.802Z,24.24
2024-04-23T13:44:20.303Z,24.22
2024-04-23T13:45:23.587Z,24.22